Time;durP1;ratioP1;P1;durP2;ratioP2;P2;SDS_P1;SDS_P2;PMS_P1;PMS_P2;Temp;Humidity;BMP_temperature;BMP_pressure;BME280_temperature;BME280_humidity;BME280_pressure;Samples;Min_cycle;Max_cycle;Signal;HPM_P1;HPM_P2
2023/08/03 00:00:12;;;;;;;0.67;0.60;;;;;;;17.17;100.00;94346.34;4352727;32;20196;-66
2023/08/03 00:02:38;;;;;;;0.23;0.23;;;;;;;17.34;99.50;94342.41;4351896;32;20220;-65
2023/08/03 00:05:04;;;;;;;0.40;0.40;;;;;;;17.24;99.08;94352.97;4340762;32;20200;-65
2023/08/03 00:07:30;;;;;;;0.70;0.70;;;;;;;17.32;100.00;94355.38;4352789;32;20177;-65
2023/08/03 00:09:55;;;;;;;0.40;0.40;;;;;;;17.40;99.46;94359.72;4341523;32;20264;-65
2023/08/03 00:12:22;;;;;;;0.30;0.30;;;;;;;17.52;99.50;94350.69;4341345;32;20261;-65
2023/08/03 00:14:49;;;;;;;0.50;0.50;;;;;;;17.50;99.54;94353.75;4347968;32;20180;-65
2023/08/03 00:17:14;;;;;;;3.70;0.93;;;;;;;17.38;99.10;94347.81;4339947;32;20178;-65
2023/08/03 00:19:39;;;;;;;1.00;1.00;;;;;;;17.41;99.01;94344.41;4352627;32;20187;-65
2023/08/03 00:22:05;;;;;;;2.70;2.23;;;;;;;17.54;99.26;94340.38;4350668;32;20264;-65
2023/08/03 00:24:30;;;;;;;0.37;0.37;;;;;;;17.63;98.71;94340.13;4344869;32;20295;-65
2023/08/03 00:26:56;;;;;;;1.70;0.70;;;;;;;17.66;98.81;94347.50;4341616;32;20180;-66
2023/08/03 00:29:21;;;;;;;0.53;0.50;;;;;;;17.73;98.77;94342.22;4338448;32;20419;-66
2023/08/03 00:31:46;;;;;;;2.10;0.90;;;;;;;17.72;98.89;94352.16;4350740;32;20186;-66
2023/08/03 00:34:11;;;;;;;0.20;0.20;;;;;;;17.75;99.07;94359.50;4341052;32;20188;-65
2023/08/03 00:36:38;;;;;;;0.40;0.40;;;;;;;17.81;98.98;94366.13;4345615;32;20220;-65
2023/08/03 00:39:04;;;;;;;1.37;0.77;;;;;;;17.75;99.04;94361.41;4341368;32;20180;-65
2023/08/03 00:41:30;;;;;;;0.40;0.40;;;;;;;17.73;99.02;94348.34;4356434;32;20177;-66
2023/08/03 00:43:55;;;;;;;0.53;0.53;;;;;;;17.76;98.24;94353.00;4342943;32;20327;-66
2023/08/03 00:46:21;;;;;;;2.63;0.70;;;;;;;17.69;98.78;94336.78;4338667;32;20237;-65
2023/08/03 00:48:46;;;;;;;0.23;0.23;;;;;;;17.72;98.89;94325.34;4339951;32;20185;-67
2023/08/03 00:51:12;;;;;;;0.23;0.23;;;;;;;17.79;99.13;94324.69;4341328;32;20259;-66
2023/08/03 00:53:37;;;;;;;0.53;0.53;;;;;;;17.53;99.79;94326.19;4347378;32;20185;-66
2023/08/03 00:56:03;;;;;;;2.30;0.63;;;;;;;17.60;99.79;94338.94;4340642;32;20186;-66
2023/08/03 00:58:28;;;;;;;0.27;0.27;;;;;;;17.53;99.76;94339.63;4342882;32;20196;-66
2023/08/03 01:00:53;;;;;;;1.07;0.60;;;;;;;17.57;100.00;94333.53;4349333;32;20231;-65
2023/08/03 01:03:19;;;;;;;0.40;0.37;;;;;;;17.56;100.00;94335.44;4345821;32;20196;-65
2023/08/03 01:05:44;;;;;;;1.00;0.73;;;;;;;17.26;100.00;94323.88;4351088;32;20183;-66
2023/08/03 01:08:09;;;;;;;0.47;0.47;;;;;;;17.32;100.00;94322.44;4346790;32;20219;-66
2023/08/03 01:10:35;;;;;;;0.33;0.33;;;;;;;17.25;100.00;94311.62;4349012;32;20182;-65
2023/08/03 01:13:00;;;;;;;0.30;0.30;;;;;;;17.36;100.00;94312.53;4347922;32;20189;-66
2023/08/03 01:15:26;;;;;;;0.33;0.33;;;;;;;17.37;100.00;94309.50;4348737;32;20197;-65
2023/08/03 01:17:51;;;;;;;0.93;0.70;;;;;;;17.29;100.00;94315.87;4346043;32;20272;-66
2023/08/03 01:20:19;;;;;;;1.57;0.63;;;;;;;17.28;100.00;94324.28;4347544;32;20264;-66
2023/08/03 01:22:44;;;;;;;1.00;1.00;;;;;;;17.21;100.00;94326.88;4344296;32;20222;-66
2023/08/03 01:25:11;;;;;;;0.73;0.60;;;;;;;17.14;100.00;94312.22;4354711;32;20181;-66
2023/08/03 01:27:40;;;;;;;0.80;0.80;;;;;;;17.30;100.00;94314.75;4343260;32;20180;-66
2023/08/03 01:30:06;;;;;;;0.47;0.47;;;;;;;17.17;100.00;94316.09;4343906;32;20228;-65
2023/08/03 01:32:31;;;;;;;0.37;0.37;;;;;;;17.26;100.00;94315.81;4353103;32;20189;-65
2023/08/03 01:34:57;;;;;;;0.90;0.90;;;;;;;17.28;100.00;94317.00;4356408;32;20189;-65
2023/08/03 01:37:26;;;;;;;1.10;1.00;;;;;;;17.25;100.00;94322.34;4342871;32;20198;-65
2023/08/03 01:39:51;;;;;;;0.67;0.63;;;;;;;17.30;100.00;94322.78;4339450;32;20208;-65
2023/08/03 01:42:16;;;;;;;6.80;0.83;;;;;;;17.30;100.00;94322.03;4342604;32;20228;-65
2023/08/03 01:44:42;;;;;;;0.47;0.47;;;;;;;17.18;100.00;94323.00;4347831;32;20181;-65
2023/08/03 01:47:09;;;;;;;0.93;0.60;;;;;;;17.19;100.00;94335.28;4331825;32;20181;-65
2023/08/03 01:49:35;;;;;;;0.40;0.40;;;;;;;17.30;100.00;94324.69;4343486;32;20185;-65
2023/08/03 01:52:00;;;;;;;0.57;0.57;;;;;;;17.31;100.00;94321.66;4342975;32;20205;-65
2023/08/03 01:54:26;;;;;;;0.20;0.20;;;;;;;17.35;100.00;94324.41;4338717;32;20181;-65
2023/08/03 01:56:53;;;;;;;0.40;0.40;;;;;;;17.33;100.00;94313.25;4350698;32;20275;-65
2023/08/03 01:59:18;;;;;;;0.50;0.50;;;;;;;17.36;100.00;94307.19;4344747;32;20207;-65
2023/08/03 02:01:44;;;;;;;0.90;0.90;;;;;;;17.47;100.00;94316.91;4350059;32;20181;-65
2023/08/03 02:04:09;;;;;;;0.87;0.83;;;;;;;17.53;100.00;94309.34;4347979;32;20193;-65
2023/08/03 02:06:36;;;;;;;1.23;0.60;;;;;;;17.63;100.00;94327.50;4342607;32;20187;-64
2023/08/03 02:09:02;;;;;;;0.60;0.47;;;;;;;17.57;100.00;94326.25;4341961;32;20192;-65
2023/08/03 02:11:28;;;;;;;0.50;0.50;;;;;;;17.67;100.00;94333.69;4353455;32;20221;-65
2023/08/03 02:13:53;;;;;;;0.73;0.70;;;;;;;17.71;100.00;94336.44;4334418;32;20191;-65
2023/08/03 02:16:18;;;;;;;0.20;0.20;;;;;;;17.65;100.00;94332.53;4352140;32;20235;-66
2023/08/03 02:18:44;;;;;;;0.33;0.33;;;;;;;17.66;100.00;94324.13;4341405;32;20204;-65
2023/08/03 02:21:09;;;;;;;0.73;0.73;;;;;;;17.67;100.00;94314.16;4348375;32;20219;-65
2023/08/03 02:23:34;;;;;;;3.90;0.87;;;;;;;17.64;100.00;94313.00;4344358;32;20200;-65
2023/08/03 02:26:03;;;;;;;0.77;0.67;;;;;;;17.55;100.00;94325.06;4347049;32;20192;-65
2023/08/03 02:28:31;;;;;;;0.77;0.73;;;;;;;17.52;100.00;94326.56;4348093;32;20178;-65
2023/08/03 02:30:58;;;;;;;0.67;0.40;;;;;;;17.43;99.28;94323.37;4341129;32;20248;-65
2023/08/03 02:33:23;;;;;;;0.87;0.83;;;;;;;17.48;99.42;94318.47;4355461;32;20173;-65
2023/08/03 02:35:49;;;;;;;0.93;0.80;;;;;;;17.37;100.00;94304.12;4342142;32;20192;-65
2023/08/03 02:38:14;;;;;;;2.63;1.00;;;;;;;17.50;100.00;94307.37;4339774;32;20185;-65
2023/08/03 02:40:40;;;;;;;0.80;0.80;;;;;;;17.47;99.31;94308.88;4336208;32;20173;-65
2023/08/03 02:43:05;;;;;;;0.40;0.40;;;;;;;17.42;99.49;94316.47;4337587;32;20193;-65
2023/08/03 02:45:30;;;;;;;5.43;0.67;;;;;;;17.39;99.82;94323.31;4351159;32;20189;-65
2023/08/03 02:47:56;;;;;;;0.50;0.50;;;;;;;17.39;99.68;94327.91;4332891;32;20212;-65
2023/08/03 02:50:21;;;;;;;0.80;0.80;;;;;;;17.41;98.59;94326.41;4349525;32;20249;-65
2023/08/03 02:52:46;;;;;;;1.30;0.80;;;;;;;17.34;98.31;94346.97;4348340;32;20204;-65
2023/08/03 02:55:12;;;;;;;1.13;1.03;;;;;;;17.40;98.40;94340.19;4332721;32;20263;-65
2023/08/03 02:57:37;;;;;;;6.80;1.07;;;;;;;17.45;98.48;94337.97;4348667;32;20181;-65
2023/08/03 03:00:04;;;;;;;0.77;0.60;;;;;;;17.48;97.66;94342.59;4354325;32;20196;-65
2023/08/03 03:02:29;;;;;;;0.83;0.70;;;;;;;17.51;97.62;94341.09;4338567;32;20189;-65
2023/08/03 03:04:54;;;;;;;0.97;0.73;;;;;;;17.50;98.12;94361.00;4350480;32;20255;-65
2023/08/03 03:07:20;;;;;;;0.37;0.37;;;;;;;17.43;97.83;94360.94;4340892;32;20231;-65
2023/08/03 03:09:45;;;;;;;0.50;0.50;;;;;;;17.42;98.29;94359.38;4341262;32;20182;-65
2023/08/03 03:12:10;;;;;;;1.17;0.77;;;;;;;17.50;98.05;94366.38;4333818;32;20203;-65
2023/08/03 03:14:36;;;;;;;1.83;0.97;;;;;;;17.30;98.48;94362.22;4339500;32;20185;-65
2023/08/03 03:17:02;;;;;;;2.30;0.63;;;;;;;17.36;97.75;94355.44;4344157;32;20212;-65
2023/08/03 03:19:27;;;;;;;0.40;0.40;;;;;;;17.35;98.51;94353.91;4339407;32;20212;-65
2023/08/03 03:21:53;;;;;;;0.50;0.50;;;;;;;17.29;97.51;94349.97;4356010;32;20189;-65
2023/08/03 03:24:18;;;;;;;0.97;0.97;;;;;;;17.39;97.54;94338.63;4333616;32;20206;-67
2023/08/03 03:26:43;;;;;;;0.20;0.20;;;;;;;17.49;96.65;94346.81;4341667;32;20300;-65
2023/08/03 03:29:09;;;;;;;0.77;0.77;;;;;;;17.49;96.37;94348.72;4334908;32;20231;-65
2023/08/03 03:31:34;;;;;;;0.57;0.57;;;;;;;17.49;97.27;94354.88;4351094;32;20230;-65
2023/08/03 03:33:59;;;;;;;0.70;0.70;;;;;;;17.26;96.98;94351.44;4335527;32;20200;-65
2023/08/03 03:36:25;;;;;;;0.93;0.70;;;;;;;17.31;97.02;94355.75;4330942;32;20235;-65
2023/08/03 03:38:50;;;;;;;0.50;0.50;;;;;;;17.27;96.85;94363.72;4340329;32;20216;-65
2023/08/03 03:41:15;;;;;;;0.70;0.53;;;;;;;17.33;96.26;94366.88;4354832;32;20193;-65
2023/08/03 03:43:41;;;;;;;0.40;0.40;;;;;;;17.33;96.48;94367.66;4336120;32;20181;-65
2023/08/03 03:46:06;;;;;;;0.87;0.80;;;;;;;17.33;96.84;94367.66;4335932;32;20199;-65
2023/08/03 03:48:31;;;;;;;1.80;0.70;;;;;;;17.39;96.60;94376.94;4333291;32;20185;-65
2023/08/03 03:50:57;;;;;;;1.87;0.77;;;;;;;17.34;97.17;94357.72;4336797;32;20211;-65
2023/08/03 03:53:22;;;;;;;3.20;0.73;;;;;;;17.10;97.63;94369.56;4335401;32;20283;-65
2023/08/03 03:55:47;;;;;;;1.30;1.17;;;;;;;17.19;97.18;94364.75;4335442;32;20240;-65
2023/08/03 03:58:13;;;;;;;0.73;0.73;;;;;;;17.06;96.59;94364.16;4335175;32;20201;-65
2023/08/03 04:00:40;;;;;;;1.23;0.77;;;;;;;16.96;95.41;94364.75;4335449;32;20257;-65
2023/08/03 04:03:09;;;;;;;0.97;0.63;;;;;;;17.06;95.08;94368.72;4356256;32;20185;-65
2023/08/03 04:05:35;;;;;;;0.73;0.73;;;;;;;17.17;93.04;94367.03;4352812;32;20204;-65
2023/08/03 04:08:01;;;;;;;0.40;0.40;;;;;;;17.17;93.94;94367.03;4337655;32;20247;-65
2023/08/03 04:10:27;;;;;;;1.30;0.63;;;;;;;17.17;93.86;94375.06;4350412;32;20212;-65
2023/08/03 04:12:53;;;;;;;0.20;0.20;;;;;;;17.13;91.93;94364.28;4346848;32;20335;-65
2023/08/03 04:15:18;;;;;;;0.50;0.30;;;;;;;17.13;91.77;94374.22;4342023;32;20190;-65
2023/08/03 04:17:45;;;;;;;0.67;0.67;;;;;;;17.14;92.24;94376.53;4339705;32;20213;-65
2023/08/03 04:20:11;;;;;;;0.70;0.60;;;;;;;17.10;90.54;94374.94;4337911;32;20196;-65
2023/08/03 04:22:37;;;;;;;0.30;0.30;;;;;;;17.09;90.66;94379.50;4335157;32;20197;-65
2023/08/03 04:25:03;;;;;;;1.03;0.80;;;;;;;17.03;90.95;94372.94;4335563;32;20232;-65
2023/08/03 04:27:28;;;;;;;1.03;0.77;;;;;;;17.13;89.59;94380.34;4332685;32;20239;-65
2023/08/03 04:29:53;;;;;;;0.40;0.40;;;;;;;17.21;89.14;94380.47;4330065;32;20194;-65
2023/08/03 04:32:19;;;;;;;2.40;0.70;;;;;;;17.10;88.83;94374.94;4334346;32;20207;-65
2023/08/03 04:34:44;;;;;;;1.80;1.10;;;;;;;17.09;88.28;94386.78;4329146;32;20194;-65
2023/08/03 04:37:09;;;;;;;0.70;0.70;;;;;;;17.10;88.05;94380.28;4340499;32;20198;-65
2023/08/03 04:39:35;;;;;;;12.50;1.40;;;;;;;17.18;88.55;94390.78;4341178;32;20193;-65
2023/08/03 04:42:00;;;;;;;1.23;0.93;;;;;;;17.23;87.99;94389.72;4335931;32;20252;-65
2023/08/03 04:44:25;;;;;;;0.40;0.40;;;;;;;17.30;88.38;94413.94;4330985;32;20201;-65
2023/08/03 04:46:50;;;;;;;1.53;0.97;;;;;;;17.31;87.94;94409.34;4349229;32;20197;-65
2023/08/03 04:49:16;;;;;;;0.93;0.93;;;;;;;17.26;87.74;94409.66;4330017;32;20232;-65
2023/08/03 04:51:41;;;;;;;0.70;0.40;;;;;;;17.22;87.86;94414.19;4329764;32;20192;-68
2023/08/03 04:54:08;;;;;;;3.40;0.83;;;;;;;17.32;89.26;94398.28;4335239;32;20209;-65
2023/08/03 04:56:33;;;;;;;0.87;0.87;;;;;;;17.18;87.62;94403.41;4324923;32;20190;-65
2023/08/03 04:58:58;;;;;;;0.97;0.50;;;;;;;17.19;88.16;94413.00;4326120;32;20204;-65
2023/08/03 05:01:23;;;;;;;4.33;0.73;;;;;;;17.21;87.91;94407.28;4330229;32;20219;-65
2023/08/03 05:03:49;;;;;;;0.60;0.60;;;;;;;17.22;87.73;94414.97;4334244;32;20240;-66
2023/08/03 05:06:14;;;;;;;0.27;0.27;;;;;;;17.30;87.70;94399.75;4343141;32;20197;-65
2023/08/03 05:08:39;;;;;;;0.53;0.47;;;;;;;17.27;86.31;94393.22;4343617;32;20253;-65
2023/08/03 05:11:05;;;;;;;1.70;0.97;;;;;;;17.20;86.06;94397.69;4353636;32;20211;-64
2023/08/03 05:13:30;;;;;;;1.30;0.87;;;;;;;17.21;85.71;94396.56;4356998;32;20241;-65
2023/08/03 05:15:55;;;;;;;1.27;0.57;;;;;;;17.30;85.21;94389.81;4340267;32;20225;-64
2023/08/03 05:18:20;;;;;;;0.43;0.43;;;;;;;17.34;83.80;94384.53;4352363;32;20205;-65
2023/08/03 05:20:46;;;;;;;3.40;0.90;;;;;;;17.28;84.22;94402.03;4340830;32;20213;-65
2023/08/03 05:23:12;;;;;;;0.67;0.37;;;;;;;17.28;85.61;94397.44;4348405;32;20237;-65
2023/08/03 05:25:38;;;;;;;0.50;0.50;;;;;;;17.45;84.90;94391.63;4340914;32;20197;-65
2023/08/03 05:28:04;;;;;;;1.13;0.33;;;;;;;17.41;83.63;94395.38;4356299;32;20225;-65
2023/08/03 05:30:29;;;;;;;0.67;0.47;;;;;;;17.45;84.18;94393.53;4353243;32;20256;-65
2023/08/03 05:32:54;;;;;;;1.60;0.80;;;;;;;17.30;84.11;94399.75;4337446;32;20185;-65
2023/08/03 05:35:20;;;;;;;0.50;0.50;;;;;;;17.44;83.37;94394.66;4343548;32;20182;-65
2023/08/03 05:37:45;;;;;;;0.60;0.60;;;;;;;17.47;82.01;94399.28;4348223;32;20185;-65
2023/08/03 05:40:11;;;;;;;0.63;0.63;;;;;;;17.51;82.93;94394.75;4348843;32;20189;-65
2023/08/03 05:42:38;;;;;;;2.47;0.87;;;;;;;17.64;82.40;94414.13;4336563;32;20228;-64
2023/08/03 05:45:13;;;;;;;8.40;0.87;;;;;;;17.50;81.76;94395.88;4355241;32;20208;-65
2023/08/03 05:47:39;;;;;;;0.77;0.77;;;;;;;17.45;82.31;94399.66;4333999;32;20220;-65
2023/08/03 05:50:15;;;;;;;0.40;0.40;;;;;;;17.51;81.08;94408.16;4334742;32;20189;-64
2023/08/03 05:52:40;;;;;;;2.80;1.07;;;;;;;17.57;80.24;94411.31;4341441;32;20176;-65
2023/08/03 05:55:10;;;;;;;0.77;0.67;;;;;;;17.55;79.20;94414.34;4349113;32;20204;-65
2023/08/03 05:57:35;;;;;;;0.30;0.30;;;;;;;17.56;80.25;94410.53;4347615;32;20201;-64
2023/08/03 06:00:03;;;;;;;4.37;0.77;;;;;;;17.59;79.94;94412.50;4356658;32;20224;-65
2023/08/03 06:02:33;;;;;;;0.40;0.40;;;;;;;17.60;79.97;94414.06;4354674;32;20194;-65
2023/08/03 06:04:58;;;;;;;1.53;1.10;;;;;;;17.70;77.98;94412.69;4331513;32;20230;-65
2023/08/03 06:07:25;;;;;;;0.73;0.73;;;;;;;17.65;79.24;94419.16;4352492;32;20276;-65
2023/08/03 06:09:50;;;;;;;0.40;0.40;;;;;;;17.68;77.24;94421.09;4336042;32;20215;-65
2023/08/03 06:12:16;;;;;;;3.93;0.93;;;;;;;17.82;77.46;94424.00;4334193;32;20198;-65
2023/08/03 06:14:41;;;;;;;0.67;0.30;;;;;;;17.94;77.06;94432.97;4350134;32;20253;-64
2023/08/03 06:17:09;;;;;;;0.33;0.33;;;;;;;17.95;76.48;94434.53;4336097;32;20241;-64
2023/08/03 06:19:35;;;;;;;0.47;0.47;;;;;;;17.98;75.60;94436.50;4348958;32;20193;-64
2023/08/03 06:22:14;;;;;;;0.40;0.40;;;;;;;18.15;73.32;94430.59;4345716;32;20197;-65
2023/08/03 06:24:39;;;;;;;0.20;0.20;;;;;;;18.24;72.96;94436.47;4352786;32;20201;-65
2023/08/03 06:27:05;;;;;;;0.50;0.40;;;;;;;18.24;73.02;94447.22;4338401;32;20251;-64
2023/08/03 06:29:30;;;;;;;0.53;0.53;;;;;;;18.31;74.10;94436.56;4342431;32;20192;-65
2023/08/03 06:31:55;;;;;;;1.27;0.80;;;;;;;18.38;72.25;94425.91;4342686;32;20189;-65
2023/08/03 06:34:21;;;;;;;0.37;0.37;;;;;;;18.45;71.17;94434.06;4356391;32;20224;-65
2023/08/03 06:36:46;;;;;;;0.77;0.77;;;;;;;18.50;71.12;94457.12;4356545;32;20185;-65
2023/08/03 06:39:11;;;;;;;2.20;0.77;;;;;;;18.55;70.91;94454.91;4336421;32;20189;-65
2023/08/03 06:41:36;;;;;;;0.30;0.30;;;;;;;18.53;70.63;94445.66;4343520;32;20238;-65
2023/08/03 06:44:02;;;;;;;0.43;0.30;;;;;;;18.69;69.88;94448.97;4342592;32;20213;-66
2023/08/03 06:46:27;;;;;;;1.10;0.50;;;;;;;18.75;69.28;94444.81;4330870;32;20224;-65
2023/08/03 06:48:53;;;;;;;0.53;0.53;;;;;;;18.75;70.02;94452.09;4349783;32;20212;-67
2023/08/03 06:51:20;;;;;;;0.10;0.10;;;;;;;18.85;68.90;94448.78;4352767;32;20211;-65
2023/08/03 06:53:46;;;;;;;0.30;0.30;;;;;;;18.91;68.71;94458.06;4330625;32;20209;-65
2023/08/03 06:56:12;;;;;;;0.33;0.33;;;;;;;18.98;69.59;94457.34;4345675;32;20185;-65
2023/08/03 06:58:38;;;;;;;7.47;0.90;;;;;;;19.01;68.68;94457.41;4336500;32;20258;-65
2023/08/03 07:01:03;;;;;;;0.60;0.60;;;;;;;19.03;67.84;94465.09;4351846;32;20272;-65
2023/08/03 07:03:30;;;;;;;0.60;0.60;;;;;;;19.00;66.95;94476.59;4339960;32;20193;-65
2023/08/03 07:05:57;;;;;;;0.20;0.20;;;;;;;19.04;65.75;94477.41;4349775;32;20199;-65
2023/08/03 07:08:22;;;;;;;0.03;0.03;;;;;;;18.98;67.04;94485.00;4332719;32;20204;-65
2023/08/03 07:10:47;;;;;;;0.53;0.53;;;;;;;19.14;65.21;94492.88;4334361;32;20202;-65
2023/08/03 07:13:13;;;;;;;0.23;0.23;;;;;;;19.21;65.09;94488.34;4335485;32;20241;-65
2023/08/03 07:15:39;;;;;;;1.90;1.00;;;;;;;19.25;65.02;94493.00;4339787;32;20199;-65
2023/08/03 07:18:06;;;;;;;0.40;0.40;;;;;;;19.48;64.27;94496.31;4338757;32;20260;-65
2023/08/03 07:20:33;;;;;;;2.00;0.60;;;;;;;19.51;63.56;94506.34;4354347;32;20189;-65
2023/08/03 07:22:59;;;;;;;1.60;0.73;;;;;;;19.45;63.90;94491.66;4342383;32;20245;-65
2023/08/03 07:25:25;;;;;;;7.13;0.67;;;;;;;19.57;62.20;94502.16;4335549;32;20341;-65
2023/08/03 07:27:51;;;;;;;0.20;0.20;;;;;;;19.65;63.29;94506.47;4340100;32;20196;-65
2023/08/03 07:30:17;;;;;;;0.60;0.47;;;;;;;19.64;60.45;94504.94;4339264;32;20217;-65
2023/08/03 07:32:42;;;;;;;0.37;0.37;;;;;;;19.70;62.31;94503.47;4337353;32;20200;-65
2023/08/03 07:35:08;;;;;;;0.20;0.10;;;;;;;19.74;60.08;94493.50;4341675;32;20204;-65
2023/08/03 07:37:33;;;;;;;0.23;0.23;;;;;;;19.78;60.25;94491.59;4350021;32;20184;-65
2023/08/03 07:39:58;;;;;;;0.20;0.20;;;;;;;19.84;60.82;94492.03;4343120;32;20224;-65
2023/08/03 07:42:23;;;;;;;0.30;0.30;;;;;;;19.85;60.24;94515.13;4351262;32;20294;-65
2023/08/03 07:44:53;;;;;;;0.60;0.50;;;;;;;19.88;59.09;94509.78;4347498;32;20185;-65
2023/08/03 07:47:19;;;;;;;0.10;0.10;;;;;;;19.64;58.68;94496.09;4332879;32;20215;-65
2023/08/03 07:49:44;;;;;;;1.17;0.67;;;;;;;19.59;60.03;94493.72;4347073;32;20197;-65
2023/08/03 07:52:10;;;;;;;0.20;0.20;;;;;;;19.49;61.35;94501.31;4345517;32;20273;-65
2023/08/03 07:54:35;;;;;;;0.40;0.40;;;;;;;19.58;60.98;94500.25;4331173;32;20194;-64
2023/08/03 07:57:00;;;;;;;0.30;0.30;;;;;;;19.48;61.84;94501.69;4328977;32;20185;-65
2023/08/03 07:59:26;;;;;;;0.10;0.10;;;;;;;19.29;60.56;94501.88;4343956;32;20212;-65
2023/08/03 08:01:51;;;;;;;0.30;0.30;;;;;;;19.38;59.24;94510.41;4339723;32;20247;-65
2023/08/03 08:04:18;;;;;;;2.67;0.53;;;;;;;19.42;60.50;94505.84;4347010;32;20208;-65
2023/08/03 08:06:44;;;;;;;1.20;0.57;;;;;;;19.56;60.12;94492.53;4345173;32;20236;-65
2023/08/03 08:09:09;;;;;;;0.13;0.13;;;;;;;19.68;59.15;94505.75;4350142;32;20189;-65
2023/08/03 08:11:35;;;;;;;1.60;0.30;;;;;;;19.78;57.50;94512.34;4346693;32;20235;-65
2023/08/03 08:14:00;;;;;;;0.10;0.10;;;;;;;19.81;57.28;94509.69;4344187;32;20200;-66
2023/08/03 08:16:26;;;;;;;1.33;0.47;;;;;;;19.86;57.72;94516.66;4342167;32;20208;-65
2023/08/03 08:18:51;;;;;;;0.53;0.30;;;;;;;19.70;58.53;94525.00;4341461;32;20195;-65
2023/08/03 08:21:16;;;;;;;0.50;0.50;;;;;;;19.78;59.38;94515.03;4336560;32;20247;-65
2023/08/03 08:23:42;;;;;;;0.97;0.97;;;;;;;19.89;59.64;94529.37;4350566;32;20190;-65
2023/08/03 08:26:15;;;;;;;0.20;0.20;;;;;;;20.01;57.62;94544.47;4340292;32;20291;-64
2023/08/03 08:28:43;;;;;;;0.10;0.10;;;;;;;20.07;59.20;94549.16;4352738;32;20189;-65
2023/08/03 08:31:09;;;;;;;1.40;0.37;;;;;;;20.07;58.92;94538.38;4342433;32;20232;-65
2023/08/03 08:33:34;;;;;;;1.30;0.50;;;;;;;20.01;57.94;94544.47;4341575;32;20189;-64
2023/08/03 08:36:00;;;;;;;0.13;0.13;;;;;;;20.08;58.19;94533.78;4342919;32;20241;-65
2023/08/03 08:38:25;;;;;;;0.20;0.20;;;;;;;20.14;57.97;94548.44;4359293;32;20223;-65
2023/08/03 08:40:51;;;;;;;0.20;0.20;;;;;;;20.13;58.26;94526.13;4338440;32;20205;-65
2023/08/03 08:43:20;;;;;;;0.60;0.60;;;;;;;20.14;58.36;94559.22;4344439;32;20256;-65
2023/08/03 08:45:45;;;;;;;9.23;0.60;;;;;;;20.09;58.63;94548.78;4340621;32;20193;-65
2023/08/03 08:48:11;;;;;;;9.13;0.50;;;;;;;20.03;57.69;94537.56;4332797;32;20272;-65
2023/08/03 08:50:36;;;;;;;0.40;0.40;;;;;;;19.98;58.55;94545.22;4355540;32;20212;-65
2023/08/03 08:53:02;;;;;;;0.40;0.40;;;;;;;19.96;58.58;94563.66;4345344;32;20225;-65
2023/08/03 08:55:29;;;;;;;0.20;0.20;;;;;;;19.95;59.58;94570.22;4333464;32;20185;-65
2023/08/03 08:57:56;;;;;;;0.67;0.67;;;;;;;19.80;58.62;94567.37;4334820;32;23080;-65
2023/08/03 09:00:24;;;;;;;0.27;0.27;;;;;;;19.85;59.37;94577.81;4346169;32;20239;-65
2023/08/03 09:02:54;;;;;;;0.63;0.23;;;;;;;19.84;58.98;94570.88;4340632;32;20192;-65
2023/08/03 09:05:21;;;;;;;0.23;0.23;;;;;;;19.93;60.35;94575.19;4354969;32;20210;-65
2023/08/03 09:08:06;;;;;;;0.10;0.10;;;;;;;20.08;60.45;94566.09;4352208;32;20202;-65
2023/08/03 09:10:47;;;;;;;0.07;0.07;;;;;;;20.19;59.46;94570.41;4346516;32;20205;-65
2023/08/03 09:13:27;;;;;;;0.83;0.47;;;;;;;20.33;58.20;94579.75;4332393;32;20193;-65
2023/08/03 09:15:53;;;;;;;0.20;0.20;;;;;;;20.47;59.81;94561.03;4328405;32;20196;-65
2023/08/03 09:18:20;;;;;;;0.23;0.23;;;;;;;20.62;59.70;94568.06;4330405;32;20204;-65
2023/08/03 09:20:46;;;;;;;1.30;1.07;;;;;;;20.73;58.37;94568.91;4354576;32;20189;-65
2023/08/03 09:23:26;;;;;;;2.53;0.93;;;;;;;20.88;57.19;94580.53;4350691;32;20255;-65
2023/08/03 09:25:52;;;;;;;0.23;0.23;;;;;;;20.87;57.78;94573.59;4334965;32;20188;-65
2023/08/03 09:28:18;;;;;;;0.47;0.47;;;;;;;20.76;57.89;94583.56;4340016;32;20209;-65
2023/08/03 09:30:48;;;;;;;0.53;0.53;;;;;;;20.76;58.32;94581.63;4353129;32;20290;-65
2023/08/03 09:33:14;;;;;;;0.30;0.30;;;;;;;20.79;57.78;94583.56;4337127;32;20225;-65
2023/08/03 09:35:39;;;;;;;0.20;0.20;;;;;;;20.70;57.58;94576.97;4339832;32;20208;-65
2023/08/03 09:38:05;;;;;;;0.10;0.10;;;;;;;20.64;56.33;94581.16;4357200;32;20204;-65
2023/08/03 09:40:44;;;;;;;0.30;0.30;;;;;;;20.61;56.63;94576.50;4341479;32;20193;-65
2023/08/03 09:43:12;;;;;;;0.27;0.27;;;;;;;20.72;57.43;94571.97;4348095;32;20224;-65
2023/08/03 09:45:37;;;;;;;0.83;0.67;;;;;;;20.74;57.02;94580.47;4347671;32;20208;-64
2023/08/03 09:48:03;;;;;;;0.17;0.17;;;;;;;20.69;56.31;94575.41;4342263;32;20200;-65
2023/08/03 09:50:33;;;;;;;0.07;0.07;;;;;;;20.81;55.48;94583.19;4350412;32;20246;-65
2023/08/03 09:53:05;;;;;;;0.30;0.30;;;;;;;20.78;54.98;94583.97;4336076;32;20264;-65
2023/08/03 09:55:36;;;;;;;0.10;0.10;;;;;;;20.76;54.54;94578.16;4347377;32;20193;-65
2023/08/03 09:58:14;;;;;;;0.10;0.10;;;;;;;20.86;55.31;94583.59;4351199;32;20185;-65
2023/08/03 10:00:43;;;;;;;4.20;0.67;;;;;;;21.01;53.61;94594.47;4339235;32;20256;-65
2023/08/03 10:03:11;;;;;;;0.20;0.20;;;;;;;21.10;54.53;94581.41;4338730;32;20197;-65
2023/08/03 10:05:40;;;;;;;0.33;0.33;;;;;;;21.17;55.11;94584.94;4337332;32;20197;-65
2023/08/03 10:08:13;;;;;;;0.10;0.10;;;;;;;21.25;54.65;94589.22;4335457;32;20196;-65
2023/08/03 10:10:46;;;;;;;0.10;0.10;;;;;;;21.27;53.43;94578.84;4355970;32;20207;-66
2023/08/03 10:13:11;;;;;;;0.10;0.10;;;;;;;21.29;53.92;94583.06;4353702;32;20238;-65
2023/08/03 10:15:38;;;;;;;4.87;4.47;;;;;;;21.34;54.21;94580.78;4342496;32;20196;-65
2023/08/03 10:18:04;;;;;;;0.93;0.93;;;;;;;21.33;54.14;94583.88;4350210;32;20185;-65
2023/08/03 10:20:30;;;;;;;0.10;0.10;;;;;;;21.35;52.79;94600.47;4346735;32;20185;-65
2023/08/03 10:23:18;;;;;;;0.27;0.27;;;;;;;21.29;52.41;94586.53;4353559;32;20291;-65
2023/08/03 10:25:52;;;;;;;0.20;0.20;;;;;;;21.32;53.72;94590.41;4341673;32;20247;-65
2023/08/03 10:28:17;;;;;;;0.10;0.10;;;;;;;21.34;54.05;94596.22;4353288;32;20231;-65
2023/08/03 10:31:07;;;;;;;3.10;0.30;;;;;;;21.19;52.96;94600.75;4343312;32;20181;-65
2023/08/03 10:33:48;;;;;;;0.37;0.33;;;;;;;21.18;55.01;94593.81;4345438;32;20227;-65
2023/08/03 10:36:26;;;;;;;0.93;0.60;;;;;;;21.20;52.61;94597.69;4348855;32;20235;-65
2023/08/03 10:38:58;;;;;;;0.10;0.10;;;;;;;21.14;52.02;94604.56;4354004;32;20207;-66
2023/08/03 10:41:25;;;;;;;0.30;0.13;;;;;;;21.10;53.62;94609.19;4349327;32;20200;-65
2023/08/03 10:44:05;;;;;;;0.20;0.20;;;;;;;21.17;52.81;94603.81;4343129;32;20185;-66
2023/08/03 10:46:35;;;;;;;0.63;0.47;;;;;;;21.10;54.87;94606.47;4339439;32;20235;-66
2023/08/03 10:49:19;;;;;;;0.40;0.40;;;;;;;21.06;55.03;94602.97;4352973;32;20189;-66
2023/08/03 10:51:45;;;;;;;1.70;0.67;;;;;;;21.10;53.13;94603.00;4350780;32;20335;-65
2023/08/03 10:54:10;;;;;;;0.13;0.13;;;;;;;21.20;55.32;94613.88;4353330;32;20197;-65
2023/08/03 10:56:36;;;;;;;0.57;0.30;;;;;;;21.11;53.70;94610.72;4339271;32;20227;-65
2023/08/03 10:59:03;;;;;;;0.10;0.10;;;;;;;21.19;51.57;94622.34;4343674;32;20192;-65
2023/08/03 11:01:28;;;;;;;0.93;0.60;;;;;;;21.09;52.18;94610.31;4340535;32;20181;-66
2023/08/03 11:03:54;;;;;;;0.00;0.00;;;;;;;21.12;51.77;94612.28;4339970;32;20263;-65
2023/08/03 11:06:20;;;;;;;0.07;0.07;;;;;;;21.12;53.28;94611.50;4331520;32;20252;-66
2023/08/03 11:08:47;;;;;;;0.20;0.20;;;;;;;21.14;52.15;94617.28;4355971;32;20216;-66
2023/08/03 11:11:21;;;;;;;0.23;0.23;;;;;;;21.12;52.88;94606.88;4345534;32;20185;-66
2023/08/03 11:13:47;;;;;;;0.60;0.20;;;;;;;21.18;53.34;94602.69;4341686;32;20236;-65
2023/08/03 11:16:18;;;;;;;0.20;0.20;;;;;;;21.18;53.48;94605.37;4341661;32;20217;-66
2023/08/03 11:18:48;;;;;;;2.73;0.73;;;;;;;21.13;53.43;94603.03;4355432;32;20206;-65
2023/08/03 11:21:15;;;;;;;0.00;0.00;;;;;;;21.12;52.39;94590.69;4352208;32;20234;-66
2023/08/03 11:23:40;;;;;;;0.27;0.27;;;;;;;21.15;53.45;94598.03;4342362;32;20208;-66
2023/08/03 11:26:08;;;;;;;0.10;0.10;;;;;;;21.27;53.39;94600.41;4344016;32;20197;-65
2023/08/03 11:28:42;;;;;;;2.80;1.47;;;;;;;21.36;52.73;94594.69;4343762;32;20200;-66